• Join FlightAware (Why Join?)
  • Login
  • US Flag GB Flag 
04:17 EDT


 

Airport Tracker/Info


-or-


 

Live Flight TrackerFlight Track Log ✈ N449ND ✈ 16-Jan-2014 ✈ KFPR - KFPR

Flight Track Log - Related Links

Times and Time Zones

All times are in EST time to prevent confusion due to time zone crossing. See the N449ND flight status page for this flight to view local times or setup timezone preferences in your user account.

Time Position Orientation Groundspeed Altitude Reporting Facility
EST Latitude Longitude Course Direction KTS MPH feet Rate Location/Type
16:51 27.4972 -80.3944 262° West 98 113 3,000  Level Miami Center
16:52 27.4947 -80.4156 262° West 83 96 1,700 480 Descending Miami Center
16:53 27.4942 -80.4342 268° West 78 90 4,000 660 Climbing Miami Center
16:54 27.4936 -80.4597 269° West 73 84 3,100 -180 Descending Miami Center
16:55 27.4931 -80.4808 268° West 73 84 3,700 540 Climbing Miami Center
16:56 27.5053 -80.4953 314° West 63 72 4,200 180 Climbing Miami Center
16:57 27.5283 -80.4914 North 70 81 4,100 -60 Descending Miami Center
16:58 27.5533 -80.4944 354° North 86 99 4,100  Level Miami Center
16:59 27.5825 -80.4931 North 86 99 4,100  Level Miami Center
17:00 27.6097 -80.4917 North 86 99 4,100  Level Miami Center
17:01 27.6328 -80.4925 358° North 86 99 4,100  Level Miami Center
17:02 27.6597 -80.4908 North 86 99 4,100 -120 Level Miami Center
17:03 27.6853 -80.4800 21° North 86 99 3,900 -420 Descending Miami Center
17:04 27.6692 -80.4514 122° Southeast 78 90 3,300 -420 Descending Miami Center
17:05 27.6553 -80.4203 117° Southeast 111 128 3,100 -120 Descending Miami Center
17:06 27.6436 -80.3872 112° Southeast 122 140 3,100  Level Miami Center
17:07 27.6319 -80.3542 112° Southeast 116 133 3,100  Level Miami Center
17:08 27.6183 -80.3161 112° Southeast 116 133 3,100  Level Miami Center
17:09 27.6064 -80.2831 112° Southeast 111 128 3,100  Level Miami Center
17:10 27.6217 -80.2600 53° Northeast 93 107 3,100 -180 Level Miami Center
17:11 27.6189 -80.2881 264° West 36 41 2,800 -480 Descending Miami Center
17:12 27.6183 -80.3161 269° West 84 97 2,200 -540 Descending Miami Center
17:13 27.6281 -80.3422 293° West 90 104 1,800 -600 Descending Miami Center
17:14 27.6358 -80.3683 289° West 85 98 1,100 -660 Descending Miami Center
17:15 27.6436 -80.3894 293° West 85 98 500 -300 Descending Miami Center
17:16 27.6514 -80.4108 292° West 90 104 500 1,200 Level Miami Center
17:17 27.6467 -80.4389 259° West 83 96 3,000 900 Climbing Miami Center
17:18 27.6439 -80.4600 262° West 83 96 2,300  Descending Miami Center
17:19 27.6392 -80.4856 258° West 83 96 3,000 360 Climbing Miami Center
17:20 27.6250 -80.4711 138° Southeast 76 87 3,100 60 Climbing Miami Center
17:21 27.6172 -80.4381 105° East 90 104 3,200 -60 Climbing Miami Center
17:22 27.6100 -80.3978 101° East 117 135 3,000 -60 Descending Miami Center
17:23 27.6003 -80.3625 107° East 117 135 3,100  Climbing Miami Center
17:24 27.5950 -80.3294 100° East 112 129 3,100 -60 Level Miami Center
17:25 27.5894 -80.2989 102° East 106 122 3,000  Descending Miami Center
17:26 27.5797 -80.2633 107° East 106 122 3,100  Climbing Miami Center
17:27 27.5722 -80.2258 103° East 106 122 3,000  Descending Miami Center
17:28 27.5647 -80.1903 103° East 106 122 3,100  Climbing Miami Center
17:29 27.5592 -80.1597 102° East 106 122 3,000  Descending Miami Center
17:30 27.5517 -80.1244 103° East 106 122 3,100  Climbing Miami Center
17:31 27.5589 -80.0872 78° East 111 128 3,100  Level Miami Center
17:32 27.5647 -80.0967 305° West 42 48 3,100 -60 Level Miami Center
17:33 27.5517 -80.1197 237° Southwest 45 52 3,000  Descending Miami Center
17:34 27.5575 -80.1433 286° West 81 93 3,100  Climbing Miami Center
17:35 27.5706 -80.1225 55° Northeast 80 92 3,000 -60 Descending Miami Center
17:36 27.5650 -80.0872 100° East 85 98 3,000 -60 Level Miami Center
17:37 27.5542 -80.1081 240° Southwest 76 87 2,900 -300 Descending Miami Center
17:38 27.5472 -80.1336 253° West 81 93 2,500 -360 Descending Miami Center
17:39 27.5200 -80.1422 196° South 90 104 2,200 -300 Descending Miami Center
17:40 27.4925 -80.1508 196° South 106 122 2,000 -120 Descending Miami Center
17:41 27.4611 -80.1592 193° South 111 128 2,000  Level Miami Center
17:42 27.4583 -80.1872 264° West 83 96 2,100 -180 Climbing Miami Center
17:43 27.4639 -80.2156 282° West 88 101 1,700 -240 Descending Miami Center
17:44 27.4697 -80.2392 286° West 88 101 1,700 -60 Level Miami Center
17:45 27.4772 -80.2697 285° West 93 107 1,600 -240 Descending Miami Center
17:46 27.4831 -80.2933 286° West 86 99 1,300 -360 Descending Miami Center
17:47 27.4886 -80.3217 282° West 86 99 900 -480 Descending Miami Center
17:48 27.4967 -80.3383 299° West 86 99 400 -540 Descending Miami Center